KTPAKEYW

Guest
Details From KTPA - Tampa Intl
To KEYW - Key West Intl
Flight Number -
Tags Generated
Created
Modified
Stats Distance 209 nm / 387 km
Max Altitude 0 ft / 0 m
Waypoints 2
Social Downloads 6
Likes 0
Share VATSIM

Download

Looking for another format? Having issues loading an existing format? Contact us
Advertisement - Login to hide

Notes

Generated

Route

KTPA KEYW

ID Type Via Altitude Latitude Longitude Leg Dist Tot Dist Heading (true) Name
O KTPA APT - 0 ft / 0 m 27.97083˚ -82.53608˚ - 0 nm - -
O KEYW APT - 0 ft / 0 m 24.55605˚ -81.76677˚ 209 nm 209 nm 168° / 169° -

Altitude Profile

Advertisement - Login to hide

Weather


0- 5 10 15 20 25 30 35+ Temperature / ° C

Clouds and Precipitation
Forecast for 2017-12-13 18:00 UTC. Updated 6 minutes ago

Ground ~20,000 ft ~40,000 ft Winds

KTPA

Details ICAO KTPA (TPA)
Name TAMPA INTL
Region United States
Timezone America/New_York (UTC-5.0)
Stats Elevation 26 ft / 8 m (AMSL)
Location 27.974892° -82.531898°
Runways 3
Magnetic Variation 5.556° W

METAR

KTPA 131453Z 36010KT 10SM CLR 13/00 A3017 RMK AO2 SLP216 T01330000 51021

Decode

TAF

KTPA 131520Z 1315/1418 01008KT P6SM SKC FM132000 28007KT P6SM FEW250 FM140100 22005KT P6SM FEW250 FM141200 22003KT P6SM FEW025 BKN045 FM141500 22009KT P6SM FEW030 BKN045

Decode

Departure Runways

ID Width Length Bearing (true) Bearing (mag) Surface Threshold Offset Overrun Length
01L 150 ft / 46 m 11,042 ft / 3,366 m 1.72° 7.28° Concrete 0 ft / 0 m 0 ft / 0 m
01R 150 ft / 46 m 8,330 ft / 2,539 m 1.72° 7.28° Asphalt 0 ft / 0 m 0 ft / 0 m
09 150 ft / 46 m 6,987 ft / 2,130 m 91.74° 97.30° Asphalt 0 ft / 0 m 0 ft / 0 m
19L 150 ft / 46 m 8,330 ft / 2,539 m 181.73° 187.29° Asphalt 0 ft / 0 m 0 ft / 0 m
19R 150 ft / 46 m 11,042 ft / 3,366 m 181.72° 187.28° Concrete 0 ft / 0 m 0 ft / 0 m
27 150 ft / 46 m 6,987 ft / 2,130 m 271.75° 277.31° Asphalt 0 ft / 0 m 0 ft / 0 m

KEYW

Details ICAO KEYW (EYW)
Name Key West Intl
Region United States
Timezone America/New_York (UTC-5.0)
Stats Elevation 2 ft / 1 m (AMSL)
Location 24.556124° -81.759546°
Runways 1
Magnetic Variation 5.545° W

METAR

KEYW 131453Z 04012KT 10SM CLR 18/12 A3014 RMK AO2 SLP206 T01830117 51023

Decode

TAF

KEYW 131438Z 1315/1412 03012G20KT P6SM FEW025 FM131800 01010KT P6SM SKC FM140100 VRB03KT P6SM SKC

Decode

Destination Runways

ID Width Length Bearing (true) Bearing (mag) Surface Threshold Offset Overrun Length
09 100 ft / 30 m 4,794 ft / 1,461 m 89.38° 94.92° Asphalt 151 ft / 46 m 0 ft / 0 m
27 100 ft / 30 m 4,794 ft / 1,461 m 269.39° 274.93° Asphalt 151 ft / 46 m 0 ft / 0 m

Popular Alternatives